Time;durP1;ratioP1;P1;durP2;ratioP2;P2;SDS_P1;SDS_P2;PMS_P1;PMS_P2;Temp;Humidity;BMP_temperature;BMP_pressure;BME280_temperature;BME280_humidity;BME280_pressure;Samples;Min_cycle;Max_cycle;Signal;HPM_P1;HPM_P2
2022/10/12 00:02:05;;;;;;;28.63;4.35;;;9.80;99.90;;;8.67;100.00;102170.53;5004749;28;20087;-81
2022/10/12 00:04:30;;;;;;;24.48;4.65;;;9.80;99.90;;;8.71;100.00;102168.75;5040097;28;20108;-80
2022/10/12 00:06:58;;;;;;;25.88;4.80;;;9.90;99.90;;;8.72;100.00;102170.47;5040262;28;20030;-81
2022/10/12 00:09:26;;;;;;;23.10;4.80;;;9.90;99.90;;;8.75;100.00;102175.69;5025426;28;21715;-80
2022/10/12 00:11:52;;;;;;;24.40;4.88;;;9.90;99.90;;;8.76;100.00;102170.38;5022996;28;20033;-81
2022/10/12 05:27:02;;;;;;;6.70;1.60;;;6.20;99.90;;;4.95;100.00;102207.34;5047256;28;20063;-79
2022/10/12 05:29:27;;;;;;;10.23;1.20;;;6.30;99.90;;;5.01;100.00;102194.28;5002281;28;20046;-79
2022/10/12 05:31:53;;;;;;;4.30;1.10;;;6.40;99.90;;;5.08;100.00;102209.06;5007834;28;20043;-79
2022/10/12 05:34:19;;;;;;;2.25;1.00;;;6.40;99.90;;;5.14;100.00;102197.75;5003820;28;20483;-78
2022/10/12 05:36:45;;;;;;;10.00;1.85;;;6.50;99.90;;;5.22;100.00;102202.97;5003340;28;20081;-79
2022/10/12 05:39:14;;;;;;;10.25;2.17;;;6.50;99.90;;;5.31;100.00;102209.06;5004662;28;20056;-78
2022/10/12 05:41:42;;;;;;;28.40;4.57;;;6.60;99.90;;;5.43;100.00;102209.91;5009532;28;20029;-79
2022/10/12 05:44:08;;;;;;;22.08;3.83;;;6.70;99.90;;;5.54;100.00;102210.75;5007994;28;20029;-78
2022/10/12 05:46:33;;;;;;;27.02;3.72;;;6.80;99.90;;;5.63;100.00;102210.72;5001054;28;20134;-80
2022/10/12 05:48:59;;;;;;;24.30;3.63;;;6.90;99.90;;;5.72;100.00;102209.84;5008622;28;20037;-79
2022/10/12 05:51:25;;;;;;;13.05;2.70;;;7.00;99.90;;;5.77;100.00;102210.72;5001503;28;20038;-80
2022/10/12 05:53:51;;;;;;;5.63;2.38;;;7.00;99.90;;;5.85;100.00;102219.41;4993084;28;20465;-78
2022/10/12 05:56:24;;;;;;;12.20;2.65;;;7.10;99.90;;;5.91;100.00;102215.88;5008139;28;20109;-79
2022/10/12 05:58:50;;;;;;;18.73;2.47;;;7.20;99.90;;;5.98;100.00;102219.38;5000645;28;20038;-80
2022/10/12 06:01:16;;;;;;;13.75;2.35;;;7.30;99.90;;;6.04;100.00;102212.38;5002233;28;20509;-79
2022/10/12 06:03:41;;;;;;;11.90;2.35;;;7.30;99.90;;;6.12;100.00;102220.19;5001878;28;20112;-79
2022/10/12 06:06:16;;;;;;;14.93;2.22;;;7.40;99.90;;;6.20;100.00;102215.81;5002826;28;20118;-79
2022/10/12 06:08:42;;;;;;;9.10;1.80;;;7.40;99.90;;;6.29;100.00;102223.59;5002977;28;20432;-79
2022/10/12 06:11:07;;;;;;;10.38;2.60;;;7.50;99.90;;;6.38;100.00;102219.22;5002250;28;20027;-79
2022/10/12 06:13:33;;;;;;;14.65;2.40;;;7.60;99.90;;;6.46;100.00;102223.53;5024927;28;20265;-79
2022/10/12 06:16:01;;;;;;;16.25;2.67;;;7.70;99.90;;;6.55;100.00;102218.22;5003271;28;20029;-78
2022/10/12 06:18:30;;;;;;;6.88;2.00;;;7.70;99.90;;;6.61;100.00;102219.94;5005474;28;20114;-79
2022/10/12 06:20:56;;;;;;;10.80;2.70;;;7.80;99.90;;;6.68;100.00;102216.41;5008842;28;20027;-78
2022/10/12 06:23:22;;;;;;;6.85;2.08;;;7.90;99.90;;;6.76;100.00;102224.22;5003442;28;20084;-79
2022/10/12 06:25:50;;;;;;;9.60;3.13;;;8.00;99.90;;;6.90;100.00;102226.72;5001977;28;20651;-79
2022/10/12 06:28:21;;;;;;;12.52;3.13;;;8.10;99.90;;;7.02;100.00;102231.00;5003662;28;20097;-79
2022/10/12 06:30:59;;;;;;;14.85;3.33;;;8.20;99.90;;;7.17;100.00;102229.13;5005302;28;20109;-79
2022/10/12 06:33:26;;;;;;;8.50;3.13;;;8.30;99.90;;;7.32;100.00;102228.16;5001771;28;20045;-79
2022/10/12 06:35:53;;;;;;;17.02;3.03;;;8.40;99.90;;;7.44;100.00;102229.75;5001942;28;20022;-78
2022/10/12 06:38:20;;;;;;;7.18;2.30;;;8.60;99.90;;;7.53;100.00;102227.03;5003263;28;20501;-80
2022/10/12 06:40:45;;;;;;;14.07;4.05;;;8.70;99.90;;;7.65;100.00;102227.84;5003190;28;20080;-79
2022/10/12 06:43:11;;;;;;;12.65;3.95;;;8.70;99.90;;;7.77;100.00;102232.91;5004864;28;20045;-80
2022/10/12 06:45:40;;;;;;;17.08;4.38;;;8.90;99.90;;;7.92;100.00;102232.75;5002967;28;20494;-80
2022/10/12 06:48:06;;;;;;;23.83;4.82;;;9.10;99.90;;;8.05;100.00;102230.00;5002234;28;20038;-80
2022/10/12 06:50:32;;;;;;;35.10;9.02;;;9.20;99.90;;;8.21;100.00;102229.78;4984280;28;20034;-79
2022/10/12 06:52:58;;;;;;;54.17;17.23;;;9.30;99.90;;;8.38;100.00;102236.56;4986646;28;20487;-80
2022/10/12 06:55:24;;;;;;;52.10;16.27;;;9.40;99.90;;;8.55;100.00;102233.72;5004014;28;20085;-80
2022/10/12 06:57:50;;;;;;;50.90;16.55;;;9.60;99.90;;;8.71;100.00;102230.00;5001659;28;20588;-80
2022/10/12 07:00:21;;;;;;;45.70;16.25;;;9.70;99.90;;;8.89;100.00;102235.88;5003673;28;20439;-80
2022/10/12 07:02:50;;;;;;;29.73;8.10;;;9.90;99.90;;;8.99;100.00;102235.72;4997963;28;20034;-80
2022/10/12 07:05:17;;;;;;;24.30;8.05;;;10.00;99.90;;;9.11;100.00;102239.88;5002418;28;20089;-80
2022/10/12 07:07:45;;;;;;;35.05;7.72;;;10.10;99.90;;;9.17;100.00;102237.16;5002445;28;20040;-80
2022/10/12 07:10:14;;;;;;;27.73;6.78;;;10.20;99.90;;;9.23;100.00;102237.06;5003440;28;20040;-79
2022/10/12 07:12:40;;;;;;;26.10;6.07;;;10.30;99.90;;;9.28;100.00;102233.50;5017781;28;20037;-80
2022/10/12 07:15:07;;;;;;;24.95;6.07;;;10.30;99.90;;;9.32;100.00;102240.44;5001279;28;20109;-80
2022/10/12 07:17:33;;;;;;;27.90;6.70;;;10.40;99.90;;;9.37;100.00;102238.59;5004245;28;20548;-79
2022/10/12 07:19:59;;;;;;;23.27;5.65;;;10.50;99.90;;;9.43;100.00;102238.47;5003182;28;20096;-80
2022/10/12 07:22:27;;;;;;;24.98;6.43;;;10.50;99.90;;;9.50;100.00;102247.97;4984876;28;20044;-80
2022/10/12 07:24:53;;;;;;;25.88;5.95;;;10.60;99.90;;;9.59;100.00;102247.84;4985739;28;20036;-79
2022/10/12 07:27:20;;;;;;;26.40;5.80;;;10.70;99.90;;;9.70;100.00;102247.63;5002980;28;20438;-80
2022/10/12 07:29:45;;;;;;;24.45;6.28;;;10.70;99.90;;;9.81;100.00;102245.66;5005620;28;20114;-80
2022/10/12 07:32:11;;;;;;;26.08;5.18;;;10.80;99.90;;;9.93;100.00;102251.59;5001150;28;20235;-80
2022/10/12 07:34:37;;;;;;;32.00;6.38;;;11.00;99.90;;;10.02;100.00;102243.50;5000710;28;20530;-80
2022/10/12 07:37:03;;;;;;;24.83;5.57;;;11.00;99.90;;;10.12;100.00;102247.69;5003139;28;20398;-80
2022/10/12 07:39:36;;;;;;;24.20;5.53;;;11.10;99.90;;;10.22;100.00;102245.75;5009983;28;20022;-80
2022/10/12 07:42:03;;;;;;;25.88;5.20;;;11.20;99.90;;;10.29;100.00;102250.00;5004001;28;20033;-80
2022/10/12 07:44:29;;;;;;;30.85;5.85;;;11.30;99.90;;;10.38;100.00;102244.53;5002011;28;20033;-80
2022/10/12 07:46:55;;;;;;;32.00;5.45;;;11.40;99.90;;;10.51;100.00;102254.81;5001236;28;20037;-80
2022/10/12 07:49:28;;;;;;;30.20;5.60;;;11.50;99.90;;;10.62;100.00;102252.81;4999057;28;20037;-80
2022/10/12 07:51:54;;;;;;;27.60;5.25;;;11.60;99.90;;;10.74;100.00;102252.53;5001105;28;20030;-79
2022/10/12 07:54:20;;;;;;;26.25;5.32;;;11.70;99.90;;;10.84;100.00;102256.69;4986257;28;20065;-79
2022/10/12 07:56:45;;;;;;;30.88;5.40;;;11.80;99.90;;;10.96;100.00;102254.66;5000790;28;20030;-80
2022/10/12 07:59:11;;;;;;;19.02;4.72;;;11.90;99.90;;;11.04;100.00;102255.34;5001483;28;20029;-80
2022/10/12 08:01:42;;;;;;;28.45;5.95;;;12.00;99.90;;;11.14;100.00;102253.34;5000085;28;20549;-80
2022/10/12 08:04:09;;;;;;;24.17;4.68;;;12.10;99.90;;;11.24;100.00;102255.72;5001119;28;20108;-80
2022/10/12 08:06:35;;;;;;;23.45;5.28;;;12.20;99.90;;;11.36;100.00;102248.41;4999801;28;20038;-80
2022/10/12 08:09:01;;;;;;;23.17;4.90;;;12.30;99.90;;;11.46;100.00;102245.47;5001195;28;20049;-79
2022/10/12 08:11:28;;;;;;;29.00;5.18;;;12.40;99.90;;;11.56;100.00;102251.41;4984776;28;20026;-80
2022/10/12 08:13:55;;;;;;;24.48;4.38;;;12.50;99.90;;;11.63;100.00;102252.09;5000625;28;20100;-80
2022/10/12 08:16:22;;;;;;;28.83;4.80;;;12.60;99.90;;;11.70;100.00;102254.53;5000452;28;20576;-80
2022/10/12 08:18:48;;;;;;;26.83;4.75;;;12.60;99.90;;;11.77;100.00;102257.88;5001151;28;20026;-80
2022/10/12 08:21:15;;;;;;;21.73;4.53;;;12.70;99.90;;;11.83;100.00;102257.69;5003410;28;20026;-80
2022/10/12 08:23:43;;;;;;;31.10;5.07;;;12.80;99.90;;;11.89;100.00;102249.63;5001356;28;20725;-80
2022/10/12 08:26:10;;;;;;;31.02;4.88;;;12.90;99.90;;;11.99;100.00;102252.91;5004715;28;20030;-80
2022/10/12 08:28:39;;;;;;;20.75;4.65;;;12.90;99.90;;;12.11;100.00;102256.94;5012317;28;20034;-80
2022/10/12 08:31:13;;;;;;;25.60;4.30;;;13.00;99.90;;;12.19;99.83;102252.31;5008406;28;20058;-80
2022/10/12 08:33:39;;;;;;;36.67;5.30;;;13.10;99.90;;;12.24;99.22;102255.69;5018481;28;20045;-82
2022/10/12 08:36:07;;;;;;;33.15;4.53;;;13.20;99.90;;;12.35;98.68;102258.00;5020486;28;20029;-82
2022/10/12 08:38:37;;;;;;;25.58;4.88;;;13.30;99.90;;;12.46;97.75;102260.31;5007744;28;20030;-81
2022/10/12 08:41:31;;;;;;;28.05;4.75;;;13.30;99.90;;;12.56;98.50;102256.50;5015030;28;20026;-82
2022/10/12 08:44:52;;;;;;;24.00;4.43;;;13.50;99.90;;;12.70;97.67;102254.31;5021131;28;20049;-82
2022/10/12 08:47:52;;;;;;;28.48;4.45;;;13.60;99.90;;;12.88;97.12;102258.16;4936987;29;20031;-82
2022/10/12 08:50:32;;;;;;;21.83;3.70;;;13.80;99.90;;;13.06;96.32;102259.31;5008022;28;20035;-82
2022/10/12 08:53:14;;;;;;;19.75;4.00;;;13.90;99.90;;;13.23;95.44;102253.47;5007705;28;20038;-81
2022/10/12 08:55:43;;;;;;;22.42;4.05;;;14.00;99.90;;;13.36;94.71;102261.91;5008514;28;20324;-82
2022/10/12 08:58:25;;;;;;;18.95;4.18;;;14.20;99.90;;;13.41;94.27;102256.44;5013518;28;20034;-82
2022/10/12 09:01:35;;;;;;;30.98;4.10;;;14.30;99.90;;;13.41;93.52;102259.09;5010754;28;20030;-82
2022/10/12 09:04:38;;;;;;;29.17;4.80;;;14.30;99.90;;;13.48;93.53;102252.69;5008729;28;20580;-82
2022/10/12 09:07:10;;;;;;;18.05;4.07;;;14.40;99.90;;;13.56;93.40;102255.91;5006198;28;20033;-82
2022/10/12 09:10:13;;;;;;;31.67;4.60;;;14.40;99.90;;;13.68;93.34;102265.22;5015069;28;20517;-82
2022/10/12 09:13:12;;;;;;;27.83;4.47;;;14.50;99.90;;;13.80;91.89;102253.31;5001771;28;20046;-81
2022/10/12 09:15:52;;;;;;;24.05;4.05;;;14.70;99.90;;;13.95;91.00;102252.78;5008280;28;20030;-82
2022/10/12 09:18:30;;;;;;;24.23;4.32;;;14.80;99.90;;;14.06;90.08;102257.66;5006316;28;20026;-82
2022/10/12 09:20:58;;;;;;;24.35;3.72;;;14.90;99.90;;;14.20;89.52;102259.81;5011448;28;20026;-82
2022/10/12 09:23:40;;;;;;;24.95;4.07;;;15.00;99.90;;;14.28;88.88;102253.31;5004775;28;20042;-82
2022/10/12 09:26:27;;;;;;;27.55;4.40;;;15.10;99.90;;;14.30;87.42;102248.81;5020920;28;20363;-82
2022/10/12 09:28:57;;;;;;;18.13;3.75;;;15.10;99.90;;;14.38;87.26;102253.81;5008523;28;20053;-82
2022/10/12 09:32:05;;;;;;;19.88;3.63;;;15.20;99.90;;;14.46;87.03;102251.75;5021348;28;20041;-82
2022/10/12 09:34:34;;;;;;;24.70;4.32;;;15.30;99.90;;;14.56;86.65;102253.16;5003335;28;20069;-82
2022/10/12 09:37:13;;;;;;;19.83;3.58;;;15.30;99.90;;;14.59;84.81;102257.47;5003524;28;20038;-81
2022/10/12 09:39:48;;;;;;;21.50;3.60;;;15.40;99.90;;;14.64;84.90;102259.94;5009607;28;20026;-82
2022/10/12 09:42:18;;;;;;;25.33;3.83;;;15.50;99.90;;;14.74;84.94;102254.22;5003987;28;20061;-82
2022/10/12 09:45:10;;;;;;;20.67;3.65;;;15.60;99.90;;;14.84;84.01;102261.78;5004610;28;20022;-82
2022/10/12 09:47:36;;;;;;;23.70;3.65;;;15.70;99.90;;;14.92;83.69;102259.69;5005882;28;20056;-82
2022/10/12 09:50:12;;;;;;;17.50;3.58;;;15.80;99.90;;;15.01;82.66;102254.03;4988325;28;20029;-81
2022/10/12 09:52:43;;;;;;;;;;;15.80;99.90;;;15.11;82.63;102258.00;5012122;28;20046;-81
2022/10/12 09:55:25;;;;;;;21.50;2.88;;;15.90;99.90;;;15.23;81.89;102258.47;5019282;28;20378;-82
2022/10/12 09:58:01;;;;;;;22.27;3.20;;;16.00;99.90;;;15.32;81.00;102260.72;5004822;28;20045;-82
2022/10/12 10:00:39;;;;;;;20.27;3.20;;;16.10;99.90;;;15.41;80.18;102259.47;5005994;28;20042;-82
2022/10/12 10:03:22;;;;;;;17.63;3.00;;;16.20;99.90;;;15.41;79.19;102262.97;5005224;28;20035;-81
2022/10/12 10:06:06;;;;;;;20.60;3.15;;;16.20;99.90;;;15.49;78.85;102262.66;5003322;28;20109;-81
2022/10/12 10:08:57;;;;;;;22.05;2.85;;;16.30;99.90;;;15.52;78.92;102262.50;5027211;28;20121;-82
2022/10/12 10:11:36;;;;;;;26.45;3.25;;;16.30;99.90;;;15.56;78.67;102262.31;4995697;28;20038;-82
2022/10/12 10:14:02;;;;;;;19.60;3.28;;;16.40;99.90;;;15.66;78.02;102256.59;5004845;28;20034;-81
2022/10/12 10:16:30;;;;;;;21.77;3.20;;;16.50;99.90;;;15.73;77.75;102260.75;5004499;28;20334;-82
2022/10/12 10:19:02;;;;;;;19.70;3.10;;;16.50;99.90;;;15.69;76.43;102259.13;5003620;28;20034;-82
2022/10/12 10:21:40;;;;;;;23.63;3.63;;;16.60;99.90;;;15.76;76.91;102261.47;5004977;28;20077;-82
2022/10/12 10:24:24;;;;;;;19.30;3.25;;;16.60;99.90;;;15.74;75.54;102263.34;5003299;28;20076;-82
2022/10/12 10:27:09;;;;;;;22.77;3.33;;;16.60;99.90;;;15.74;75.82;102250.09;5005270;28;20509;-81
2022/10/12 10:29:48;;;;;;;20.15;3.47;;;16.60;99.90;;;15.77;76.36;102257.91;5014742;28;20049;-85
2022/10/12 10:32:30;;;;;;;15.82;3.22;;;16.60;99.90;;;15.73;75.73;102258.09;5012445;28;20033;-84
2022/10/12 10:35:08;;;;;;;27.30;3.55;;;16.60;99.90;;;15.75;75.87;102254.44;5016211;28;20038;-85
2022/10/12 10:37:56;;;;;;;17.85;3.17;;;16.60;99.90;;;15.76;75.28;102255.31;5013010;28;20069;-84
2022/10/12 10:40:40;;;;;;;18.13;2.78;;;16.60;99.90;;;15.75;75.03;102253.59;5010461;28;20069;-85
2022/10/12 10:43:33;;;;;;;18.25;2.65;;;16.60;99.90;;;15.79;74.17;102250.72;5012091;28;20092;-84
2022/10/12 10:46:13;;;;;;;;;;;;;;;;;;;;;
2022/10/12 10:49:30;;;;;;;11.07;2.85;;;16.60;99.90;;;15.79;73.85;102253.38;5011262;28;20038;-84
2022/10/12 10:52:30;;;;;;;5.63;1.58;;;16.60;99.90;;;15.78;73.79;102248.97;4991578;28;20120;-84
2022/10/12 10:55:27;;;;;;;5.45;1.80;;;16.70;99.90;;;15.87;72.90;102246.84;4994788;28;20050;-83
2022/10/12 10:58:03;;;;;;;3.53;1.00;;;16.70;99.90;;;16.00;72.98;102248.03;4997549;28;20088;-84
2022/10/12 11:00:47;;;;;;;3.55;1.27;;;16.80;99.90;;;16.09;72.86;102252.94;5009548;28;20276;-84
2022/10/12 11:04:06;;;;;;;4.65;1.40;;;16.90;99.90;;;16.24;72.28;102255.81;4995313;28;20038;-84
2022/10/12 11:09:48;;;;;;;3.22;1.38;;;17.00;99.90;;;16.28;70.97;102249.44;4998312;28;20034;-84
2022/10/12 11:12:29;;;;;;;2.53;1.00;;;17.10;99.90;;;16.35;71.65;102243.75;5009532;28;20056;-84
2022/10/12 11:15:24;;;;;;;2.47;0.90;;;17.10;99.90;;;16.40;71.18;102248.84;5014173;28;20049;-84
2022/10/12 11:18:45;;;;;;;1.77;0.90;;;17.20;99.90;;;16.44;70.36;102236.28;4995817;28;20491;-84
2022/10/12 11:21:23;;;;;;;2.35;0.93;;;17.30;99.90;;;16.47;70.32;102239.66;4982551;28;20045;-84
2022/10/12 11:24:27;;;;;;;3.47;0.88;;;17.30;99.90;;;16.50;70.58;102235.97;5025174;28;20034;-84
2022/10/12 11:27:01;;;;;;;1.90;0.80;;;17.30;99.90;;;16.57;70.04;102240.09;5008232;28;20030;-83
2022/10/12 11:29:28;;;;;;;1.75;0.50;;;17.30;99.90;;;16.50;69.50;102231.56;5009296;28;20061;-85
2022/10/12 11:32:23;;;;;;;1.58;0.70;;;17.30;99.90;;;16.50;69.85;102233.31;5013489;28;20391;-84
2022/10/12 11:35:00;;;;;;;1.02;0.55;;;17.40;99.90;;;16.49;69.74;102234.28;4998189;28;20529;-84
2022/10/12 11:37:43;;;;;;;0.95;0.57;;;17.30;99.90;;;16.60;70.82;102243.44;5012156;28;20041;-84
2022/10/12 11:40:55;;;;;;;0.68;0.43;;;17.40;99.90;;;16.65;69.21;102226.41;5013069;28;20058;-83
2022/10/12 11:43:26;;;;;;;0.50;0.35;;;;;;;16.66;69.22;102230.81;5013088;28;20117;-85
2022/10/12 11:46:13;;;;;;;0.10;0.10;;;17.50;99.90;;;16.69;68.99;102238.63;5035913;28;20010;-85
2022/10/12 11:48:58;;;;;;;0.00;0.00;;;17.50;99.90;;;16.71;68.77;102226.13;5029916;28;20034;-85
2022/10/12 11:51:33;;;;;;;0.00;0.00;;;17.50;99.90;;;16.73;69.00;102218.94;5018058;28;20049;-85
2022/10/12 11:54:31;;;;;;;0.10;0.10;;;17.60;99.90;;;16.83;68.93;102222.03;5008183;28;20115;-84
2022/10/12 11:57:30;;;;;;;0.00;0.00;;;17.70;99.90;;;16.94;68.83;102220.56;5001894;28;20047;-85
2022/10/12 12:00:24;;;;;;;0.00;0.00;;;17.70;99.90;;;17.02;68.32;102222.84;5029327;28;20029;-84
2022/10/12 12:03:27;;;;;;;10.35;2.80;;;17.80;99.90;;;17.06;68.22;102218.22;5009635;28;20450;-84
2022/10/12 12:06:22;;;;;;;10.65;2.38;;;17.80;99.90;;;17.09;68.03;102218.09;4999467;28;20057;-84
2022/10/12 12:09:00;;;;;;;12.52;3.00;;;17.90;99.90;;;17.01;68.11;102216.66;5014667;28;20049;-84
2022/10/12 12:12:08;;;;;;;12.77;2.95;;;17.90;99.90;;;17.02;67.25;102210.41;5013701;28;20630;-84
2022/10/12 12:14:52;;;;;;;14.20;3.25;;;17.80;99.90;;;17.06;67.13;102210.25;5027889;28;20049;-84
2022/10/12 12:17:18;;;;;;;18.00;3.20;;;17.80;99.90;;;17.05;67.71;102211.19;5014242;28;20029;-84
2022/10/12 12:19:52;;;;;;;13.05;2.83;;;17.80;99.90;;;17.08;67.60;102206.56;5004646;28;20022;-83
2022/10/12 12:22:19;;;;;;;14.63;3.33;;;17.90;99.90;;;17.05;67.08;102211.19;5008208;28;20021;-85
2022/10/12 12:25:07;;;;;;;11.52;2.30;;;17.90;99.90;;;17.10;66.93;102201.16;5003264;28;20057;-83
2022/10/12 12:27:36;;;;;;;13.65;3.25;;;17.90;99.90;;;17.07;66.77;102199.53;5013000;28;20445;-84
2022/10/12 12:30:19;;;;;;;16.60;2.60;;;17.90;99.90;;;17.06;67.31;102203.09;5011827;28;20475;-83
2022/10/12 12:32:51;;;;;;;12.50;2.58;;;17.90;99.90;;;17.08;67.06;102209.22;5014487;28;20040;-84
2022/10/12 12:35:34;;;;;;;15.15;2.90;;;17.90;99.90;;;17.12;66.66;102216.09;5006409;28;20049;-85
2022/10/12 12:38:30;;;;;;;15.20;2.90;;;17.90;99.90;;;17.11;65.93;102209.06;5028620;28;20041;-85
2022/10/12 12:41:44;;;;;;;10.40;2.20;;;17.90;99.90;;;17.05;64.94;102200.53;5003581;28;20026;-84
2022/10/12 12:44:40;;;;;;;12.90;2.70;;;17.80;99.90;;;16.95;65.80;102201.03;5001193;28;20041;-83
2022/10/12 12:47:07;;;;;;;15.73;3.42;;;17.80;99.90;;;16.93;66.18;102199.34;5011680;28;20034;-84
2022/10/12 12:49:47;;;;;;;19.48;3.13;;;17.70;99.90;;;16.90;66.74;102197.69;5008558;28;20030;-83
2022/10/12 12:52:37;;;;;;;15.10;2.47;;;17.70;99.90;;;16.81;66.95;102198.16;5009181;28;20052;-84
2022/10/12 12:55:34;;;;;;;17.15;2.83;;;17.70;99.90;;;16.83;67.59;102192.78;5011034;28;20065;-82
2022/10/12 12:58:45;;;;;;;16.55;2.72;;;17.60;99.90;;;16.80;67.15;102194.66;5027510;28;20033;-83
2022/10/12 13:02:20;;;;;;;14.75;2.95;;;17.60;99.90;;;16.81;66.38;102187.53;5000955;28;20041;-84
2022/10/12 13:05:17;;;;;;;16.77;3.60;;;17.60;99.90;;;16.76;66.31;102205.47;4977285;28;20045;-83
2022/10/12 13:08:20;;;;;;;19.47;2.97;;;17.60;99.90;;;16.67;66.21;102189.97;5012710;28;20022;-84
2022/10/12 13:10:52;;;;;;;16.23;3.05;;;17.50;99.90;;;16.56;66.26;102188.69;5013713;28;20379;-82
2022/10/12 13:13:56;;;;;;;15.93;3.70;;;17.50;99.90;;;16.55;66.61;102192.28;5016317;28;20126;-84
2022/10/12 13:17:14;;;;;;;22.30;3.10;;;17.40;99.90;;;16.50;66.94;102188.13;5014260;28;20030;-85
2022/10/12 13:19:41;;;;;;;14.55;3.28;;;17.30;99.90;;;16.47;66.13;102183.81;5000762;28;20038;-83
2022/10/12 13:22:29;;;;;;;20.58;3.47;;;17.30;99.90;;;16.43;66.41;102174.25;5012214;28;20433;-85
2022/10/12 13:25:09;;;;;;;13.65;2.60;;;17.30;99.90;;;16.39;67.73;102181.56;5017754;28;20643;-84
2022/10/12 13:27:52;;;;;;;17.05;3.47;;;17.30;99.90;;;16.38;67.72;102184.28;5013142;28;20030;-84
2022/10/12 13:30:50;;;;;;;19.85;3.25;;;17.30;99.90;;;16.37;67.84;102182.53;5013835;28;20034;-84
2022/10/12 13:33:40;;;;;;;19.42;3.00;;;17.30;99.90;;;16.37;67.88;102177.22;5026318;28;20061;-85
2022/10/12 13:36:28;;;;;;;23.40;3.45;;;17.20;99.90;;;16.33;68.18;102167.69;5014852;28;20024;-84
2022/10/12 13:39:18;;;;;;;28.23;3.50;;;17.20;99.90;;;16.26;68.49;102171.56;5033985;28;20028;-84
2022/10/12 13:41:48;;;;;;;22.30;3.10;;;17.10;99.90;;;16.20;68.16;102172.72;5015658;28;20641;-84
2022/10/12 13:44:38;;;;;;;18.25;3.17;;;17.10;99.90;;;16.12;68.20;102167.75;5012650;28;20037;-83
2022/10/12 13:47:21;;;;;;;20.95;3.13;;;17.00;99.90;;;16.00;68.65;102163.00;5015354;28;20057;-84
2022/10/12 13:49:47;;;;;;;18.23;2.78;;;16.90;99.90;;;15.96;68.97;102154.34;5008174;28;20039;-85
2022/10/12 13:52:13;;;;;;;25.70;3.63;;;16.90;99.90;;;15.95;69.44;102149.94;5020151;28;20034;-84
2022/10/12 13:55:17;;;;;;;20.50;3.03;;;16.90;99.90;;;15.87;69.40;102156.56;5008939;28;20033;-84
2022/10/12 13:57:49;;;;;;;23.45;3.25;;;16.80;99.90;;;15.78;69.10;102150.72;5009723;28;20482;-84
2022/10/12 14:00:20;;;;;;;17.50;2.80;;;16.70;99.90;;;15.76;69.27;102144.63;5000698;28;20557;-83
2022/10/12 14:03:05;;;;;;;21.35;3.30;;;16.70;99.90;;;15.68;69.37;102144.09;5010924;28;20129;-84
2022/10/12 14:05:40;;;;;;;19.98;2.90;;;16.60;99.90;;;15.64;70.27;102149.63;5014762;28;20441;-84
2022/10/12 14:08:14;;;;;;;22.20;3.30;;;16.60;99.90;;;15.66;70.13;102150.38;5006512;28;20475;-85
2022/10/12 14:10:48;;;;;;;24.23;3.47;;;16.60;99.90;;;15.59;70.37;102144.50;5016641;28;20565;-84
2022/10/12 14:13:25;;;;;;;20.02;3.03;;;16.50;99.90;;;15.51;70.03;102144.00;4999081;28;20483;-84
2022/10/12 14:15:52;;;;;;;17.75;3.03;;;16.50;99.90;;;15.49;70.01;102140.56;4999981;28;20030;-84
2022/10/12 14:19:00;;;;;;;16.52;2.78;;;16.40;99.90;;;15.51;70.95;102136.91;5004189;28;20049;-83
2022/10/12 14:21:30;;;;;;;20.52;2.88;;;16.40;99.90;;;15.48;71.25;102136.16;5025143;28;20030;-85
2022/10/12 14:24:05;;;;;;;23.50;3.28;;;16.40;99.90;;;15.49;70.98;102137.91;5015808;28;20653;-84
2022/10/12 14:26:52;;;;;;;25.63;3.63;;;16.40;99.90;;;15.49;71.00;102136.09;5011204;28;20022;-84
2022/10/12 14:29:43;;;;;;;21.85;2.97;;;16.40;99.90;;;15.48;71.14;102128.19;5010807;28;20030;-84
2022/10/12 14:32:12;;;;;;;23.52;3.38;;;16.40;99.90;;;15.45;70.86;102126.53;5027695;28;20122;-85
2022/10/12 14:34:48;;;;;;;22.02;3.25;;;16.40;99.90;;;15.43;69.99;102131.06;5013029;28;20495;-85
2022/10/12 14:37:14;;;;;;;24.23;3.92;;;16.30;99.90;;;15.43;70.21;102119.59;5014515;28;20033;-84
2022/10/12 14:39:42;;;;;;;24.67;2.85;;;16.30;99.90;;;15.41;69.90;102118.78;5013731;28;20038;-84
2022/10/12 14:42:35;;;;;;;19.70;2.72;;;16.30;99.90;;;15.38;69.86;102118.00;5018555;28;20062;-84
2022/10/12 14:45:24;;;;;;;25.08;3.13;;;16.30;99.90;;;15.33;69.97;102117.34;5031170;28;20030;-85
2022/10/12 14:47:51;;;;;;;25.45;3.40;;;16.30;99.90;;;15.28;70.11;102113.16;5004258;28;20064;-84
2022/10/12 14:50:20;;;;;;;21.85;3.33;;;16.20;99.90;;;15.24;70.63;102108.91;5013310;28;20053;-84
2022/10/12 14:52:59;;;;;;;30.27;3.83;;;16.20;99.90;;;15.12;70.79;102111.19;4999296;28;20068;-84
2022/10/12 14:55:41;;;;;;;24.05;3.53;;;16.10;99.90;;;15.03;71.07;102108.06;5016315;28;20026;-85
2022/10/12 14:58:14;;;;;;;21.10;3.00;;;16.00;99.90;;;14.82;70.68;102101.91;5009592;28;20034;-85
2022/10/12 15:00:40;;;;;;;24.58;3.38;;;15.90;99.90;;;14.75;70.15;102102.16;4998700;28;20045;-85
2022/10/12 15:03:06;;;;;;;22.38;2.83;;;15.80;99.90;;;14.74;70.35;102099.56;5005686;28;20027;-84
2022/10/12 15:05:33;;;;;;;24.13;3.08;;;15.80;99.90;;;14.72;71.35;102098.78;5008263;28;20027;-84
2022/10/12 15:08:07;;;;;;;34.35;3.40;;;15.70;99.90;;;14.70;71.45;102098.81;4997692;28;20418;-84
2022/10/12 15:10:35;;;;;;;17.83;3.10;;;15.70;99.90;;;14.70;71.58;102103.28;5010683;28;20030;-84
2022/10/12 15:13:01;;;;;;;19.73;3.08;;;15.60;99.90;;;14.65;71.38;102102.63;5015495;28;20036;-85
2022/10/12 15:15:41;;;;;;;14.63;2.72;;;15.60;99.90;;;14.61;72.09;102099.22;5013725;28;20026;-84
2022/10/12 15:18:16;;;;;;;19.20;3.03;;;15.60;99.90;;;14.54;72.95;102090.63;5005075;28;20030;-85
2022/10/12 15:20:42;;;;;;;17.03;2.87;;;15.50;99.90;;;14.43;73.41;102087.56;5015136;28;20026;-83
2022/10/12 15:23:09;;;;;;;15.88;2.70;;;15.50;99.90;;;14.38;73.48;102091.31;4999307;28;20064;-84
2022/10/12 15:25:42;;;;;;;16.35;2.92;;;15.40;99.90;;;14.31;74.27;102096.00;5007198;28;20018;-83
2022/10/12 15:28:11;;;;;;;18.77;3.00;;;15.30;99.90;;;14.25;74.74;102091.81;5006575;28;20022;-84
2022/10/12 15:30:37;;;;;;;18.83;2.95;;;15.50;99.90;;;14.16;75.69;102087.75;5006228;28;20030;-84
2022/10/12 15:33:03;;;;;;;13.10;2.40;;;15.20;99.90;;;14.08;76.32;102088.97;5011072;28;20084;-84
2022/10/12 15:35:34;;;;;;;22.17;3.08;;;15.10;99.90;;;13.98;76.56;102083.19;5014837;28;20080;-84
2022/10/12 15:38:01;;;;;;;21.50;3.20;;;15.00;99.90;;;13.84;76.99;102080.22;5027332;28;20057;-85
2022/10/12 15:40:29;;;;;;;20.83;2.95;;;14.90;99.90;;;13.79;76.89;102082.19;5026806;28;20081;-84
2022/10/12 15:43:04;;;;;;;19.60;2.80;;;14.80;99.90;;;13.67;77.36;102079.09;5021290;28;20027;-85
2022/10/12 15:45:43;;;;;;;17.88;2.42;;;14.70;99.90;;;13.60;78.06;102077.56;5011183;28;20502;-84
2022/10/12 15:48:09;;;;;;;21.85;3.15;;;14.70;99.90;;;13.52;78.27;102069.09;5016705;28;20109;-83
2022/10/12 15:50:47;;;;;;;15.98;2.58;;;14.60;99.90;;;13.50;77.91;102065.63;5010596;28;20084;-83
2022/10/12 15:53:26;;;;;;;16.77;2.85;;;14.50;99.90;;;13.40;78.51;102061.59;5010665;28;20414;-85
2022/10/12 15:55:54;;;;;;;22.83;3.83;;;14.40;99.90;;;13.23;79.85;102055.09;4998796;28;20046;-84
2022/10/12 15:58:20;;;;;;;26.45;3.15;;;14.40;99.90;;;13.17;79.92;102055.31;5007968;28;20030;-85
2022/10/12 16:00:47;;;;;;;18.98;2.78;;;14.30;99.90;;;13.09;80.65;102049.47;5013851;28;20058;-85
2022/10/12 16:03:20;;;;;;;25.02;3.03;;;14.20;99.90;;;12.93;81.22;102047.34;5015487;28;20120;-85
2022/10/12 16:05:46;;;;;;;22.88;3.28;;;14.10;99.90;;;12.91;82.28;102043.03;5014576;28;20489;-85
2022/10/12 16:08:14;;;;;;;11.18;2.40;;;14.10;99.90;;;12.84;82.89;102045.03;5011521;28;20026;-85